createdAt,value
2018-09-06T00:00:54.892Z,54.67
2018-09-06T00:03:23.149Z,55.24
2018-09-06T00:05:51.174Z,54.47
2018-09-06T00:08:19.142Z,54.74
2018-09-06T00:10:46.893Z,54.53
2018-09-06T00:13:14.853Z,54.65
2018-09-06T00:15:43.411Z,55.27
2018-09-06T00:18:11.280Z,54.72
2018-09-06T00:20:39.280Z,54.59
2018-09-06T00:23:07.390Z,54.93
2018-09-06T00:25:35.871Z,54.81
2018-09-06T00:28:03.566Z,54.49
2018-09-06T00:30:31.175Z,54.90
2018-09-06T00:32:59.040Z,54.29
2018-09-06T00:35:26.692Z,54.68
2018-09-06T00:37:54.409Z,55.20
2018-09-06T00:40:22.269Z,55.28
2018-09-06T00:42:50.402Z,55.10
2018-09-06T00:45:18.157Z,55.03
2018-09-06T00:47:45.762Z,55.38
2018-09-06T00:50:17.721Z,54.82
2018-09-06T00:52:47.285Z,54.49
2018-09-06T00:55:14.928Z,55.43
2018-09-06T00:57:42.619Z,55.47
2018-09-06T01:00:10.261Z,55.51
2018-09-06T01:02:37.916Z,55.28
2018-09-06T01:05:05.838Z,55.30
2018-09-06T01:07:33.498Z,55.03
2018-09-06T01:10:01.520Z,55.36
2018-09-06T01:12:29.417Z,54.90
2018-09-06T01:14:57.424Z,54.85
2018-09-06T01:17:25.458Z,54.77
2018-09-06T01:19:53.520Z,55.39
2018-09-06T01:22:21.261Z,54.82
2018-09-06T01:24:49.146Z,55.20
2018-09-06T01:27:16.769Z,54.50
2018-09-06T01:29:44.606Z,54.74
2018-09-06T01:32:12.531Z,54.60
2018-09-06T01:34:40.150Z,54.53
2018-09-06T01:37:12.896Z,54.78
2018-09-06T01:39:40.604Z,54.91
2018-09-06T01:42:08.889Z,55.41
2018-09-06T01:44:36.859Z,54.58
2018-09-06T01:47:05.128Z,55.41
2018-09-06T01:49:33.303Z,55.61
2018-09-06T01:52:00.993Z,54.73
2018-09-06T01:54:29.006Z,54.59
2018-09-06T01:56:56.756Z,55.11
2018-09-06T01:59:24.484Z,55.53
2018-09-06T02:01:52.451Z,54.79
2018-09-06T02:04:20.166Z,54.81
2018-09-06T02:06:47.957Z,54.93
2018-09-06T02:09:15.556Z,55.32
2018-09-06T02:11:43.225Z,55.54
2018-09-06T02:14:11.245Z,54.82
2018-09-06T02:16:38.881Z,55.57
2018-09-06T02:19:06.825Z,55.41
2018-09-06T02:21:34.746Z,54.60
2018-09-06T02:24:02.368Z,55.30
2018-09-06T02:26:30.713Z,55.39
2018-09-06T02:28:58.371Z,54.71
2018-09-06T02:31:26.021Z,55.39
2018-09-06T02:33:53.901Z,55.58
2018-09-06T02:36:21.538Z,55.31
2018-09-06T02:38:49.424Z,55.61
2018-09-06T02:41:17.395Z,55.18
2018-09-06T02:43:45.023Z,54.79
2018-09-06T02:46:12.970Z,54.66
2018-09-06T02:48:42.211Z,55.21
2018-09-06T02:51:15.333Z,55.01
2018-09-06T02:53:43.108Z,55.21
2018-09-06T02:56:11.381Z,54.69
2018-09-06T02:58:39.062Z,55.63
2018-09-06T03:01:06.973Z,55.16
2018-09-06T03:03:34.677Z,54.93
2018-09-06T03:06:02.678Z,54.84
2018-09-06T03:08:30.520Z,55.21
2018-09-06T03:11:04.766Z,55.44
2018-09-06T03:13:32.665Z,55.46
2018-09-06T03:16:01.124Z,55.87
2018-09-06T03:18:28.778Z,54.93
2018-09-06T03:20:56.730Z,54.64
2018-09-06T03:23:24.361Z,54.88
2018-09-06T03:25:52.304Z,54.67
2018-09-06T03:28:19.941Z,55.05
2018-09-06T03:30:47.945Z,55.38
2018-09-06T03:33:15.628Z,54.58
2018-09-06T03:35:43.236Z,54.56
2018-09-06T03:38:10.909Z,55.36
2018-09-06T03:40:39.090Z,54.73
2018-09-06T03:43:06.821Z,54.78
2018-09-06T03:45:34.457Z,54.76
2018-09-06T03:48:02.048Z,54.93
2018-09-06T03:50:29.714Z,54.83
2018-09-06T03:52:57.350Z,54.57
2018-09-06T03:55:25.322Z,54.57
2018-09-06T03:57:53.295Z,54.87
2018-09-06T04:00:20.954Z,54.67
2018-09-06T04:02:48.833Z,55.52
2018-09-06T04:05:16.742Z,54.77
2018-09-06T04:07:44.381Z,55.60
2018-09-06T04:10:12.072Z,55.66
2018-09-06T04:12:40.149Z,55.29
2018-09-06T04:15:07.917Z,55.30
2018-09-06T04:17:35.649Z,55.00
2018-09-06T04:20:03.420Z,54.83
2018-09-06T04:22:31.629Z,55.73
2018-09-06T04:24:59.693Z,55.62
2018-09-06T04:27:27.410Z,55.00
2018-09-06T04:32:22.784Z,55.33
2018-09-06T04:34:50.728Z,55.03
2018-09-06T04:37:18.699Z,55.39
2018-09-06T04:39:46.296Z,54.85
2018-09-06T04:42:13.952Z,56.11
2018-09-06T04:44:41.641Z,55.91
2018-09-06T04:47:09.298Z,55.67
2018-09-06T04:49:36.965Z,55.21
2018-09-06T04:52:04.535Z,56.05
2018-09-06T04:54:32.152Z,55.99
2018-09-06T04:56:59.787Z,55.24
2018-09-06T04:59:27.936Z,55.72
2018-09-06T05:01:55.601Z,55.87
2018-09-06T05:04:23.555Z,55.55
2018-09-06T05:06:51.754Z,55.13
2018-09-06T05:09:19.678Z,55.39
2018-09-06T05:14:14.842Z,54.91
2018-09-06T05:16:42.484Z,54.80
2018-09-06T05:19:10.174Z,54.81
2018-09-06T05:21:37.819Z,55.34
2018-09-06T05:24:05.732Z,54.97
2018-09-06T05:26:33.407Z,55.47
2018-09-06T05:29:01.326Z,54.80
2018-09-06T05:33:56.337Z,55.69
2018-09-06T05:36:23.987Z,54.76
2018-09-06T05:38:51.617Z,54.68
2018-09-06T05:41:19.265Z,54.96
2018-09-06T05:43:47.448Z,55.36
2018-09-06T05:46:15.515Z,55.58
2018-09-06T05:48:43.530Z,54.54
2018-09-06T05:51:11.165Z,54.70
2018-09-06T05:53:39.312Z,54.34
2018-09-06T05:56:07.241Z,54.87
2018-09-06T05:58:35.088Z,55.17
2018-09-06T06:01:03.116Z,55.08
2018-09-06T06:03:31.098Z,54.80
2018-09-06T06:05:59.053Z,54.90
2018-09-06T06:08:37.457Z,54.66
2018-09-06T06:11:05.189Z,54.80
2018-09-06T06:13:32.831Z,54.50
2018-09-06T06:16:00.554Z,54.93
2018-09-06T06:18:28.543Z,54.59
2018-09-06T06:20:56.436Z,55.11
2018-09-06T06:23:24.070Z,54.78
2018-09-06T06:25:51.751Z,55.18
2018-09-06T06:28:19.765Z,54.95
2018-09-06T06:30:48.218Z,54.76
2018-09-06T06:33:15.865Z,55.29
2018-09-06T06:35:43.505Z,54.48
2018-09-06T06:38:11.198Z,55.02
2018-09-06T06:40:38.825Z,54.85
2018-09-06T06:43:06.479Z,54.50
2018-09-06T06:45:34.402Z,55.29
2018-09-06T06:48:02.387Z,55.15
2018-09-06T06:50:30.116Z,55.13
2018-09-06T06:52:58.089Z,54.49
2018-09-06T06:55:26.013Z,54.92
2018-09-06T06:57:53.874Z,54.52
2018-09-06T07:00:21.892Z,54.78
2018-09-06T07:02:50.396Z,54.33
2018-09-06T07:05:18.368Z,54.28
2018-09-06T07:07:46.023Z,54.27
2018-09-06T07:10:14.026Z,54.28
2018-09-06T07:12:41.645Z,54.62
2018-09-06T07:15:09.604Z,54.36
2018-09-06T07:17:37.632Z,54.86
2018-09-06T07:20:05.248Z,54.56
2018-09-06T07:22:32.897Z,54.35
2018-09-06T07:25:01.116Z,54.90
2018-09-06T07:27:29.144Z,54.26
2018-09-06T07:29:58.029Z,54.05
2018-09-06T07:32:26.339Z,54.21
2018-09-06T07:34:54.002Z,54.89
2018-09-06T07:37:21.958Z,54.96
2018-09-06T07:39:50.065Z,54.11
2018-09-06T07:42:17.986Z,54.29
2018-09-06T07:44:45.599Z,54.84
2018-09-06T07:47:13.622Z,54.86
2018-09-06T07:49:42.385Z,54.88
2018-09-06T07:52:10.030Z,54.66
2018-09-06T07:54:37.719Z,53.96
2018-09-06T07:57:05.671Z,54.23
2018-09-06T07:59:33.569Z,54.14
2018-09-06T08:02:01.495Z,54.73
2018-09-06T08:04:29.158Z,53.88
2018-09-06T08:06:57.118Z,53.99
2018-09-06T08:09:25.055Z,55.00
2018-09-06T08:11:53.638Z,54.29
2018-09-06T08:14:21.635Z,54.84
2018-09-06T08:16:49.621Z,53.97
2018-09-06T08:19:17.309Z,53.92
2018-09-06T08:21:44.967Z,54.50
2018-09-06T08:24:12.611Z,54.50
2018-09-06T08:26:40.584Z,54.41
2018-09-06T08:29:08.265Z,54.56
2018-09-06T08:31:36.250Z,53.73
2018-09-06T08:34:04.400Z,53.78
2018-09-06T08:36:32.385Z,53.85
2018-09-06T08:38:59.998Z,53.90
2018-09-06T08:41:27.714Z,53.78
2018-09-06T08:43:55.363Z,54.52
2018-09-06T08:46:23.226Z,54.34
2018-09-06T08:48:51.986Z,54.17
2018-09-06T08:51:20.054Z,53.71
2018-09-06T08:53:47.993Z,53.15
2018-09-06T08:56:15.623Z,53.60
2018-09-06T08:58:43.595Z,54.22
2018-09-06T09:01:16.716Z,53.97
2018-09-06T09:03:44.743Z,53.15
2018-09-06T09:06:12.375Z,53.32
2018-09-06T09:08:40.406Z,53.88
2018-09-06T09:11:08.080Z,53.35
2018-09-06T09:13:36.115Z,53.32
2018-09-06T09:16:03.835Z,52.99
2018-09-06T09:18:31.512Z,53.08
2018-09-06T09:20:59.224Z,52.99
2018-09-06T09:23:26.982Z,53.73
2018-09-06T09:25:55.003Z,53.97
2018-09-06T09:28:23.513Z,54.04
2018-09-06T09:30:51.442Z,53.76
2018-09-06T09:33:19.091Z,53.60
2018-09-06T09:35:46.744Z,53.07
2018-09-06T09:38:14.434Z,53.27
2018-09-06T09:40:42.062Z,53.46
2018-09-06T09:45:33.154Z,53.38
2018-09-06T09:48:01.210Z,53.57
2018-09-06T09:52:56.057Z,53.62
2018-09-06T09:55:23.725Z,52.74
2018-09-06T09:57:51.322Z,53.34
2018-09-06T10:00:23.855Z,52.65
2018-09-06T10:02:56.969Z,53.42
2018-09-06T10:05:30.526Z,52.35
2018-09-06T10:07:58.728Z,53.26
2018-09-06T10:10:26.739Z,52.66
2018-09-06T10:12:54.348Z,52.28
2018-09-06T10:15:22.370Z,52.81
2018-09-06T10:17:50.313Z,52.48
2018-09-06T10:20:18.465Z,53.11
2018-09-06T10:22:46.253Z,53.20
2018-09-06T10:25:14.274Z,53.38
2018-09-06T10:27:42.421Z,53.07
2018-09-06T10:30:10.467Z,52.25
2018-09-06T10:32:38.961Z,53.42
2018-09-06T10:35:07.042Z,52.61
2018-09-06T10:37:34.956Z,52.98
2018-09-06T10:40:02.648Z,52.08
2018-09-06T10:42:30.292Z,52.66
2018-09-06T10:44:57.904Z,52.65
2018-09-06T10:47:25.562Z,52.59
2018-09-06T10:49:53.457Z,52.61
2018-09-06T10:52:21.370Z,52.00
2018-09-06T10:54:49.249Z,52.41
2018-09-06T10:57:17.371Z,52.57
2018-09-06T10:59:45.369Z,51.65
2018-09-06T11:02:19.758Z,52.66
2018-09-06T11:04:48.674Z,52.15
2018-09-06T11:07:16.316Z,52.33
2018-09-06T11:09:44.280Z,52.19
2018-09-06T11:12:11.998Z,52.11
2018-09-06T11:14:39.998Z,51.93
2018-09-06T11:17:07.692Z,51.65
2018-09-06T11:19:36.148Z,51.96
2018-09-06T11:22:04.048Z,52.52
2018-09-06T11:24:31.710Z,52.07
2018-09-06T11:26:59.368Z,51.78
2018-09-06T11:29:27.269Z,51.71
2018-09-06T11:31:55.176Z,51.30
2018-09-06T11:34:22.997Z,51.07
2018-09-06T11:36:50.857Z,51.66
2018-09-06T11:39:18.842Z,50.95
2018-09-06T11:41:46.556Z,51.91
2018-09-06T11:44:14.228Z,50.76
2018-09-06T11:46:42.248Z,51.84
2018-09-06T11:49:10.118Z,52.04
2018-09-06T11:51:38.073Z,52.07
2018-09-06T11:54:05.753Z,51.48
2018-09-06T11:56:33.957Z,51.35
2018-09-06T11:59:01.671Z,51.48
2018-09-06T12:01:29.381Z,51.82
2018-09-06T12:03:57.172Z,51.12
2018-09-06T12:06:24.823Z,51.66
2018-09-06T12:08:52.731Z,51.70
2018-09-06T12:11:20.482Z,51.12
2018-09-06T12:13:48.172Z,50.93
2018-09-06T12:16:15.784Z,50.41
2018-09-06T12:18:43.414Z,51.22
2018-09-06T12:21:11.270Z,50.77
2018-09-06T12:23:39.387Z,51.10
2018-09-06T12:26:07.065Z,50.97
2018-09-06T12:28:34.698Z,50.47
2018-09-06T12:31:02.689Z,51.06
2018-09-06T12:33:30.772Z,50.71
2018-09-06T12:35:58.486Z,50.28
2018-09-06T12:38:26.312Z,50.16
2018-09-06T12:40:54.361Z,50.82
2018-09-06T12:43:22.567Z,50.18
2018-09-06T12:45:50.818Z,50.02
2018-09-06T12:48:18.451Z,50.08
2018-09-06T12:50:46.346Z,50.64
2018-09-06T12:53:14.309Z,50.44
2018-09-06T12:55:41.949Z,49.77
2018-09-06T12:58:09.951Z,49.45
2018-09-06T13:00:37.589Z,50.05
2018-09-06T13:03:05.775Z,50.39
2018-09-06T13:05:33.697Z,49.21
2018-09-06T13:08:01.369Z,49.53
2018-09-06T13:10:29.070Z,49.74
2018-09-06T13:12:56.681Z,48.82
2018-09-06T13:15:25.069Z,49.36
2018-09-06T13:17:52.705Z,49.14
2018-09-06T13:20:20.785Z,49.38
2018-09-06T13:22:48.899Z,49.01
2018-09-06T13:25:16.548Z,48.43
2018-09-06T13:27:44.423Z,49.32
2018-09-06T13:30:12.316Z,48.95
2018-09-06T13:32:40.092Z,48.35
2018-09-06T13:35:08.027Z,49.31
2018-09-06T13:37:36.199Z,49.26
2018-09-06T13:40:03.915Z,49.43
2018-09-06T13:42:31.835Z,48.37
2018-09-06T13:44:59.545Z,49.50
2018-09-06T13:47:27.410Z,48.98
2018-09-06T13:49:55.134Z,48.52
2018-09-06T13:52:23.118Z,49.18
2018-09-06T13:54:50.702Z,49.07
2018-09-06T13:57:18.616Z,49.01
2018-09-06T13:59:46.296Z,48.66
2018-09-06T14:02:14.264Z,49.29
2018-09-06T14:04:41.905Z,48.81
2018-09-06T14:07:10.163Z,48.94
2018-09-06T14:09:38.179Z,48.85
2018-09-06T14:12:06.452Z,48.42
2018-09-06T14:14:34.111Z,48.44
2018-09-06T14:17:02.103Z,48.38
2018-09-06T14:19:30.016Z,48.58
2018-09-06T14:21:57.680Z,49.04
2018-09-06T14:24:25.734Z,49.04
2018-09-06T14:26:53.585Z,48.45
2018-09-06T14:29:21.272Z,49.04
2018-09-06T14:31:49.155Z,48.73
2018-09-06T14:34:16.818Z,48.29
2018-09-06T14:36:44.653Z,48.06
2018-09-06T14:39:12.562Z,48.64
2018-09-06T14:41:40.564Z,47.80
2018-09-06T14:44:08.228Z,46.92
2018-09-06T14:46:36.180Z,47.74
2018-09-06T14:49:03.816Z,47.55
2018-09-06T14:51:31.440Z,46.90
2018-09-06T14:53:59.686Z,47.14
2018-09-06T14:56:27.370Z,46.16
2018-09-06T14:58:55.470Z,46.18
2018-09-06T15:01:23.471Z,46.96
2018-09-06T15:03:51.308Z,48.09
2018-09-06T15:06:19.053Z,47.45
2018-09-06T15:08:47.178Z,47.77
2018-09-06T15:11:14.845Z,48.21
2018-09-06T15:13:42.563Z,48.24
2018-09-06T15:16:10.493Z,47.60
2018-09-06T15:18:38.159Z,47.80
2018-09-06T15:21:06.169Z,47.58
2018-09-06T15:23:33.974Z,48.56
2018-09-06T15:26:01.806Z,47.26
2018-09-06T15:28:29.691Z,47.81
2018-09-06T15:30:57.405Z,47.82
2018-09-06T15:33:25.239Z,45.99
2018-09-06T15:35:53.262Z,45.82
2018-09-06T15:38:21.254Z,46.17
2018-09-06T15:40:49.554Z,47.67
2018-09-06T15:43:17.212Z,47.05
2018-09-06T15:45:45.266Z,47.69
2018-09-06T15:48:12.997Z,48.13
2018-09-06T15:50:40.629Z,47.78
2018-09-06T15:53:08.597Z,48.41
2018-09-06T15:55:36.533Z,49.20
2018-09-06T15:58:04.459Z,48.52
2018-09-06T16:00:32.420Z,48.98
2018-09-06T16:03:00.073Z,48.76
2018-09-06T16:05:28.107Z,49.50
2018-09-06T16:07:55.873Z,49.72
2018-09-06T16:10:23.496Z,49.29
2018-09-06T16:12:51.380Z,48.85
2018-09-06T16:15:19.631Z,49.45
2018-09-06T16:17:47.889Z,49.22
2018-09-06T16:20:15.778Z,49.90
2018-09-06T16:22:44.919Z,49.85
2018-09-06T16:25:12.931Z,49.27
2018-09-06T16:27:40.998Z,49.87
2018-09-06T16:30:08.713Z,49.52
2018-09-06T16:32:36.885Z,50.39
2018-09-06T16:35:04.838Z,50.27
2018-09-06T16:37:32.581Z,49.25
2018-09-06T16:40:00.409Z,50.03
2018-09-06T16:42:28.924Z,49.84
2018-09-06T16:44:57.185Z,49.54
2018-09-06T16:47:25.587Z,50.08
2018-09-06T16:49:53.348Z,49.87
2018-09-06T16:52:21.345Z,50.94
2018-09-06T16:54:49.426Z,50.07
2018-09-06T16:57:17.113Z,51.17
2018-09-06T16:59:44.834Z,50.73
2018-09-06T17:02:13.756Z,51.30
2018-09-06T17:04:41.802Z,51.73
2018-09-06T17:07:10.101Z,50.94
2018-09-06T17:09:37.928Z,52.11
2018-09-06T17:12:05.957Z,51.50
2018-09-06T17:14:34.381Z,52.15
2018-09-06T17:17:02.029Z,52.20
2018-09-06T17:19:29.708Z,53.05
2018-09-06T17:21:57.396Z,52.59
2018-09-06T17:24:25.069Z,52.49
2018-09-06T17:26:54.058Z,52.85
2018-09-06T17:29:22.333Z,52.92
2018-09-06T17:31:50.209Z,53.21
2018-09-06T17:34:17.949Z,53.47
2018-09-06T17:36:45.575Z,53.99
2018-09-06T17:39:14.040Z,53.90
2018-09-06T17:41:41.764Z,53.77
2018-09-06T17:44:09.980Z,53.99
2018-09-06T17:46:37.775Z,55.17
2018-09-06T17:49:05.476Z,55.82
2018-09-06T17:51:33.635Z,56.08
2018-09-06T17:54:01.300Z,56.17
2018-09-06T17:56:29.352Z,56.77
2018-09-06T17:58:57.292Z,56.54
2018-09-06T18:01:38.954Z,55.79
2018-09-06T18:04:07.158Z,56.02
2018-09-06T18:06:34.885Z,56.39
2018-09-06T18:09:05.940Z,56.79
2018-09-06T18:11:33.616Z,56.67
2018-09-06T18:14:01.633Z,55.83
2018-09-06T18:16:29.298Z,56.73
2018-09-06T18:18:56.975Z,55.78
2018-09-06T18:21:25.362Z,56.59
2018-09-06T18:23:53.680Z,56.19
2018-09-06T18:26:22.189Z,56.09
2018-09-06T18:28:49.872Z,56.03
2018-09-06T18:31:17.551Z,56.26
2018-09-06T18:33:45.500Z,56.38
2018-09-06T18:36:13.292Z,56.95
2018-09-06T18:38:41.455Z,56.75
2018-09-06T18:41:09.251Z,57.30
2018-09-06T18:43:37.385Z,57.09
2018-09-06T18:46:05.251Z,57.17
2018-09-06T18:48:32.910Z,57.09
2018-09-06T18:51:00.603Z,56.54
2018-09-06T18:53:28.304Z,56.59
2018-09-06T18:55:55.941Z,56.53
2018-09-06T18:58:23.904Z,56.72
2018-09-06T19:00:51.538Z,56.81
2018-09-06T19:03:19.434Z,57.03
2018-09-06T19:05:47.742Z,57.36
2018-09-06T19:08:16.228Z,57.52
2018-09-06T19:10:44.166Z,57.49
2018-09-06T19:13:11.807Z,57.56
2018-09-06T19:15:39.561Z,57.95
2018-09-06T19:18:07.757Z,58.08
2018-09-06T19:20:35.719Z,58.07
2018-09-06T19:23:03.712Z,57.50
2018-09-06T19:25:31.684Z,58.14
2018-09-06T19:27:59.673Z,57.94
2018-09-06T19:30:27.485Z,57.27
2018-09-06T19:32:55.534Z,58.03
2018-09-06T19:35:23.564Z,58.15
2018-09-06T19:37:51.532Z,57.41
2018-09-06T19:40:19.482Z,58.15
2018-09-06T19:42:47.414Z,57.54
2018-09-06T19:45:15.643Z,58.09
2018-09-06T19:47:43.607Z,57.78
2018-09-06T19:50:11.867Z,57.60
2018-09-06T19:52:39.549Z,58.07
2018-09-06T19:55:07.297Z,57.89
2018-09-06T19:57:35.802Z,57.80
2018-09-06T20:00:04.092Z,58.06
2018-09-06T20:02:32.128Z,58.55
2018-09-06T20:04:59.887Z,58.04
2018-09-06T20:07:27.816Z,58.42
2018-09-06T20:09:55.487Z,58.00
2018-09-06T20:12:24.866Z,58.11
2018-09-06T20:14:52.515Z,58.03
2018-09-06T20:17:20.410Z,57.78
2018-09-06T20:19:48.535Z,58.77
2018-09-06T20:22:16.609Z,58.17
2018-09-06T20:24:44.441Z,58.01
2018-09-06T20:27:12.892Z,58.32
2018-09-06T20:29:40.606Z,58.40
2018-09-06T20:32:08.340Z,57.90
2018-09-06T20:34:36.556Z,58.83
2018-09-06T20:37:04.250Z,58.86
2018-09-06T20:39:32.098Z,58.91
2018-09-06T20:41:59.889Z,58.62
2018-09-06T20:44:27.505Z,57.72
2018-09-06T20:46:55.877Z,58.64
2018-09-06T20:49:23.715Z,58.07
2018-09-06T20:51:51.765Z,58.77
2018-09-06T20:54:19.724Z,58.18
2018-09-06T20:56:48.338Z,58.73
2018-09-06T20:59:16.433Z,58.34
2018-09-06T21:01:45.280Z,59.04
2018-09-06T21:04:13.380Z,58.26
2018-09-06T21:06:41.058Z,58.25
2018-09-06T21:09:09.521Z,58.76
2018-09-06T21:11:37.898Z,59.13
2018-09-06T21:14:05.988Z,58.90
2018-09-06T21:16:33.784Z,58.95
2018-09-06T21:19:02.376Z,58.16
2018-09-06T21:21:30.832Z,58.14
2018-09-06T21:23:58.694Z,58.98
2018-09-06T21:26:27.004Z,58.88
2018-09-06T21:28:54.752Z,58.97
2018-09-06T21:31:22.616Z,58.46
2018-09-06T21:33:50.488Z,58.58
2018-09-06T21:36:18.629Z,59.03
2018-09-06T21:38:47.056Z,58.61
2018-09-06T21:41:14.689Z,58.60
2018-09-06T21:43:42.455Z,58.38
2018-09-06T21:46:10.434Z,59.11
2018-09-06T21:48:38.100Z,58.55
2018-09-06T21:51:05.981Z,59.22
2018-09-06T21:53:33.897Z,58.88
2018-09-06T21:56:01.601Z,58.48
2018-09-06T21:58:29.638Z,59.50
2018-09-06T22:00:57.256Z,59.12
2018-09-06T22:03:30.370Z,59.35
2018-09-06T22:05:58.224Z,59.13
2018-09-06T22:08:25.876Z,58.57
2018-09-06T22:10:53.566Z,58.92
2018-09-06T22:13:21.254Z,58.88
2018-09-06T22:15:48.876Z,59.03
2018-09-06T22:18:16.501Z,58.96
2018-09-06T22:20:44.169Z,58.91
2018-09-06T22:23:11.804Z,59.06
2018-09-06T22:25:40.154Z,59.33
2018-09-06T22:28:08.073Z,59.70
2018-09-06T22:30:35.790Z,59.95
2018-09-06T22:33:04.151Z,59.55
2018-09-06T22:35:32.143Z,60.24
2018-09-06T22:37:59.816Z,59.42
2018-09-06T22:40:27.449Z,60.23
2018-09-06T22:42:55.073Z,59.55
2018-09-06T22:45:23.013Z,59.95
2018-09-06T22:47:50.644Z,60.45
2018-09-06T22:50:18.520Z,60.57
2018-09-06T22:52:46.118Z,60.09
2018-09-06T22:55:14.088Z,60.25
2018-09-06T22:57:42.048Z,61.06
2018-09-06T23:00:09.646Z,60.25
2018-09-06T23:02:42.808Z,60.31
2018-09-06T23:05:10.781Z,61.00
2018-09-06T23:07:39.160Z,60.25
2018-09-06T23:10:07.344Z,61.09
2018-09-06T23:12:35.039Z,60.64
2018-09-06T23:15:02.675Z,60.57
2018-09-06T23:17:30.584Z,61.03
2018-09-06T23:19:58.837Z,61.19
2018-09-06T23:22:26.693Z,61.61
2018-09-06T23:24:54.450Z,60.84
2018-09-06T23:27:25.101Z,61.34
2018-09-06T23:29:53.276Z,60.83
2018-09-06T23:32:21.480Z,61.53
2018-09-06T23:34:49.622Z,61.08
2018-09-06T23:37:17.281Z,61.69
2018-09-06T23:39:44.994Z,61.02
2018-09-06T23:42:12.622Z,61.77
2018-09-06T23:44:40.289Z,61.25
2018-09-06T23:47:08.194Z,61.77
2018-09-06T23:49:36.125Z,61.86
2018-09-06T23:52:03.829Z,61.56
2018-09-06T23:54:31.490Z,62.15
2018-09-06T23:56:59.182Z,61.86
2018-09-06T23:59:26.813Z,62.03
